»·PEaware :: N21705 KSNA-KCRQ

N21705 :: KSNA-KCRQ

FLIGHT INFORMATION

Flight Status: Arrived
Operator: Privately registered:
United States
More flights under this callsign
Pilot: Anonymous 33140 (33140)
Aircraft: CESSNA 172 SKYHAWK
(C172)
More flights by this aircraft type
Origin: KSNA John Wayne-Orange Co
United States
Destination: KCRQ McClellan-Palomar
United States
More flights between these airports :: More routes between these airports
Route: V23 OCN
File this flight plan on PilotEdge
Remarks:
Altitude:
(Current/Filed)
5,000ft
Speed:
(Current/Filed)
110kts
Departed: 13-Jan-21 12:05 PM
Arrived: 13-Jan-21 12:45 PM
Distance/Time
Traveled:
44nm/0:40
Distance/Time
To Go:
Arrived

Flight Plot

Page will automatically refresh every two minutes.


Map Options




Map Legend


Flown Route
Filed Route
Departure Airport
Arrival Airport
Navaid (VOR, NDB)
Fix

Horizontal Profiles

Position Reports

Time Latitude Longitude Heading Altitude Ground
Speed
13-Jan-21 11:43 33.676153 -117.870775 357 53ft 0kts
13-Jan-21 11:44 33.676153 -117.870775 357 53ft 0kts
13-Jan-21 11:45 33.676153 -117.870775 357 53ft 0kts
13-Jan-21 11:46 33.676153 -117.870775 357 53ft 0kts
13-Jan-21 11:47 33.676153 -117.870775 357 53ft 0kts
13-Jan-21 11:48 33.676153 -117.870775 357 53ft 0kts
13-Jan-21 11:49 33.676153 -117.870775 357 53ft 0kts
13-Jan-21 11:50 33.676153 -117.870775 357 53ft 0kts
13-Jan-21 11:51 33.676153 -117.870775 357 53ft 0kts
13-Jan-21 11:52 33.676153 -117.870775 357 53ft 0kts
13-Jan-21 11:53 33.676153 -117.870775 357 53ft 0kts
13-Jan-21 11:55 33.676153 -117.870775 357 53ft 0kts
13-Jan-21 11:56 33.676153 -117.870775 357 53ft 0kts
13-Jan-21 11:57 33.676153 -117.870775 357 53ft 0kts
13-Jan-21 11:58 33.676153 -117.870775 357 53ft 0kts
13-Jan-21 11:59 33.676153 -117.870775 357 53ft 0kts
13-Jan-21 12:00 33.676153 -117.870775 357 53ft 0kts
13-Jan-21 12:01 33.676585 -117.869794 26 54ft 5kts
13-Jan-21 12:02 33.680551 -117.867455 28 44ft 13kts
13-Jan-21 12:03 33.681242 -117.866532 106 43ft 0kts
13-Jan-21 12:04 33.681242 -117.866532 106 43ft 0kts
13-Jan-21 12:05 33.676559 -117.868338 211 75ft 68kts
13-Jan-21 12:06 33.656179 -117.878063 192 873ft 82kts
13-Jan-21 12:07 33.633338 -117.879723 187 1707ft 80kts
13-Jan-21 12:08 33.611323 -117.880692 188 2501ft 77kts
13-Jan-21 12:08 33.597816 -117.869960 115 3115ft 82kts
13-Jan-21 12:10 33.588256 -117.840778 112 3963ft 79kts
13-Jan-21 12:11 33.576885 -117.819816 141 4632ft 74kts
13-Jan-21 12:12 33.560682 -117.801435 138 5021ft 104kts
13-Jan-21 12:12 33.542356 -117.778993 138 4997ft 116kts
13-Jan-21 12:14 33.515101 -117.746302 137 5000ft 120kts
13-Jan-21 12:14 33.495395 -117.722682 138 4986ft 118kts
13-Jan-21 12:15 33.472042 -117.694676 137 5001ft 119kts
13-Jan-21 12:16 33.448855 -117.666758 137 4993ft 117kts
13-Jan-21 12:17 33.425747 -117.639157 138 4997ft 117kts
13-Jan-21 12:18 33.402792 -117.611607 138 5001ft 118kts
13-Jan-21 12:19 33.379544 -117.583788 137 5000ft 118kts
13-Jan-21 12:20 33.356453 -117.556155 137 4997ft 116kts
13-Jan-21 12:21 33.333477 -117.528640 137 4994ft 116kts
13-Jan-21 12:22 33.310743 -117.501469 137 5001ft 115kts
13-Jan-21 12:23 33.287806 -117.474049 137 5003ft 117kts
13-Jan-21 12:24 33.264751 -117.446512 138 4999ft 117kts
13-Jan-21 12:25 33.241670 -117.418966 137 5004ft 118kts
13-Jan-21 12:26 33.239228 -117.380454 83 5000ft 121kts
13-Jan-21 12:27 33.243136 -117.340421 82 4996ft 120kts
13-Jan-21 12:28 33.247129 -117.300779 82 4999ft 120kts
13-Jan-21 12:29 33.251163 -117.261093 82 5002ft 120kts
13-Jan-21 12:30 33.255222 -117.221353 82 4998ft 121kts
13-Jan-21 12:31 33.259292 -117.181321 82 5000ft 121kts
13-Jan-21 12:32 33.259101 -117.141594 101 4990ft 119kts
13-Jan-21 12:33 33.252620 -117.102201 102 4995ft 121kts
13-Jan-21 12:34 33.245455 -117.062802 122 4992ft 121kts
13-Jan-21 12:35 33.215143 -117.056119 182 4647ft 112kts
13-Jan-21 12:36 33.183934 -117.055123 186 4044ft 111kts
13-Jan-21 12:37 33.161611 -117.077684 250 3576ft 102kts
13-Jan-21 12:38 33.154797 -117.111701 258 3321ft 107kts
13-Jan-21 12:39 33.149636 -117.146849 261 2679ft 108kts
13-Jan-21 12:40 33.143677 -117.182044 259 1894ft 107kts
13-Jan-21 12:41 33.137895 -117.217182 261 1344ft 102kts
13-Jan-21 12:42 33.133208 -117.248954 260 766ft 91kts
13-Jan-21 12:43 33.128793 -117.276707 259 328ft 62kts
13-Jan-21 12:44 33.127569 -117.279618 143 331ft 0kts
13-Jan-21 12:45 33.127569 -117.279618 143 331ft 0kts
13-Jan-21 12:46 33.127915 -117.276928 107 331ft 5kts
13-Jan-21 12:47 33.127609 -117.276455 74 332ft 0kts

Navigation Log

Ident Type
Flight plan parsing failed, navigation log unavailable